Time;durP1;ratioP1;P1;durP2;ratioP2;P2;SDS_P1;SDS_P2;PMS_P1;PMS_P2;Temp;Humidity;BMP_temperature;BMP_pressure;BME280_temperature;BME280_humidity;BME280_pressure;Samples;Min_cycle;Max_cycle;Signal;HPM_P1;HPM_P2
2024/04/13 00:00:41;;;;;;;20.00;7.88;;;;;;;13.35;100.00;102575.78;5347422;26;20001;-65
2024/04/13 00:03:06;;;;;;;19.60;7.55;;;;;;;13.30;100.00;102588.06;5346829;26;20067;-65
2024/04/13 00:05:32;;;;;;;19.90;7.95;;;;;;;13.26;100.00;102581.75;5347035;26;20007;-65
2024/04/13 00:07:57;;;;;;;19.98;7.75;;;;;;;13.22;100.00;102585.22;5346858;26;20005;-66
2024/04/13 00:10:26;;;;;;;19.83;7.90;;;;;;;13.19;100.00;102590.47;5346687;26;20001;-65
2024/04/13 00:12:51;;;;;;;19.70;7.60;;;;;;;13.13;100.00;102585.03;5346532;26;20004;-65
2024/04/13 00:15:17;;;;;;;19.95;7.40;;;;;;;13.04;100.00;102588.38;5346919;26;20003;-65
2024/04/13 00:17:43;;;;;;;21.85;7.93;;;;;;;12.99;100.00;102587.38;5346367;26;20630;-65
2024/04/13 00:20:09;;;;;;;20.63;7.82;;;;;;;12.91;100.00;102588.09;5345117;26;20008;-65
2024/04/13 00:22:35;;;;;;;19.65;7.75;;;;;;;12.87;100.00;102583.59;5346825;26;20011;-65
2024/04/13 00:25:02;;;;;;;19.50;8.00;;;;;;;12.89;100.00;102588.94;5346453;26;19997;-65
2024/04/13 00:27:28;;;;;;;19.65;7.70;;;;;;;12.94;100.00;102589.94;5346552;26;20015;-65
2024/04/13 00:29:54;;;;;;;19.90;7.70;;;;;;;13.00;100.00;102586.53;5346843;26;20001;-65
2024/04/13 00:32:19;;;;;;;19.63;7.90;;;;;;;13.01;100.00;102583.00;5346478;26;20061;-65
2024/04/13 00:34:45;;;;;;;19.42;7.70;;;;;;;13.03;100.00;102579.53;5346538;26;20012;-65
2024/04/13 00:37:10;;;;;;;21.08;8.32;;;;;;;13.04;100.00;102576.00;5346529;26;20075;-66
2024/04/13 00:39:37;;;;;;;20.15;7.85;;;;;;;13.05;100.00;102563.63;5346219;26;20009;-65
2024/04/13 00:42:06;;;;;;;20.35;8.00;;;;;;;13.02;100.00;102576.84;5343374;26;20440;-65
2024/04/13 00:44:32;;;;;;;19.02;7.70;;;;;;;13.01;100.00;102573.28;5346288;26;19997;-69
2024/04/13 00:47:04;;;;;;;20.50;7.60;;;;;;;13.01;100.00;102575.06;5346142;26;19993;-69
2024/04/13 00:49:33;;;;;;;19.58;7.72;;;;;;;12.98;100.00;102575.88;5346458;26;19997;-69
2024/04/13 00:51:59;;;;;;;19.73;7.85;;;;;;;12.99;100.00;102568.78;5344782;26;20007;-69
2024/04/13 00:54:27;;;;;;;21.05;7.70;;;;;;;12.98;100.00;102564.38;5345917;26;20001;-69
2024/04/13 00:56:56;;;;;;;20.88;7.90;;;;;;;12.93;100.00;102566.94;5345912;26;20080;-69
2024/04/13 00:59:25;;;;;;;19.67;7.90;;;;;;;13.00;100.00;102567.94;5346000;26;19997;-69
2024/04/13 01:01:52;;;;;;;19.88;7.85;;;;;;;13.02;100.00;102575.06;5346260;26;20347;-68
2024/04/13 01:04:21;;;;;;;19.98;7.95;;;;;;;12.98;100.00;102570.56;5311846;26;20002;-68
2024/04/13 01:06:47;;;;;;;19.88;8.10;;;;;;;12.99;100.00;102568.78;5346076;26;20008;-69
2024/04/13 01:09:14;;;;;;;19.88;7.60;;;;;;;13.01;100.00;102569.75;5345929;26;20440;-67
2024/04/13 01:11:41;;;;;;;20.42;7.65;;;;;;;12.99;100.00;102555.53;5346013;26;20070;-66
2024/04/13 01:14:07;;;;;;;19.45;8.00;;;;;;;12.98;100.00;102551.09;5345888;26;19996;-66
2024/04/13 01:16:35;;;;;;;20.10;7.43;;;;;;;12.97;100.00;102554.59;5345563;26;20409;-69
2024/04/13 01:19:00;;;;;;;20.80;8.05;;;;;;;12.95;100.00;102551.91;5345899;26;20008;-66
2024/04/13 01:21:26;;;;;;;20.35;7.97;;;;;;;12.94;100.00;102552.78;5346130;26;20025;-67
2024/04/13 01:24:04;;;;;;;20.23;7.68;;;;;;;12.94;100.00;102550.13;5343706;26;20007;-73
2024/04/13 01:26:37;;;;;;;19.88;8.18;;;;;;;12.91;100.00;102542.97;5345762;26;20000;-72
2024/04/13 01:29:07;;;;;;;20.30;8.20;;;;;;;12.92;100.00;102538.59;5345356;26;20001;-66
2024/04/13 01:31:37;;;;;;;20.38;8.23;;;;;;;12.98;100.00;102540.47;5343936;26;20071;-70
2024/04/13 01:34:03;;;;;;;21.52;8.80;;;;;;;12.98;100.00;102543.13;5345498;26;20321;-75
2024/04/13 01:36:41;;;;;;;21.35;8.77;;;;;;;13.05;100.00;102529.13;5345165;26;20040;-65
2024/04/13 01:39:13;;;;;;;21.30;9.13;;;;;;;13.08;100.00;102523.88;5338698;26;19993;-66
2024/04/13 01:41:41;;;;;;;19.88;8.40;;;;;;;13.05;100.00;102535.31;5339750;26;20008;-65
2024/04/13 01:44:06;;;;;;;21.65;8.82;;;;;;;13.03;100.00;102525.53;5338472;26;20015;-65
2024/04/13 01:46:34;;;;;;;20.42;9.07;;;;;;;13.09;100.00;102525.66;5345362;26;20439;-69
2024/04/13 01:49:00;;;;;;;21.23;9.20;;;;;;;13.06;100.00;102522.94;5345140;26;20000;-69
2024/04/13 01:51:26;;;;;;;21.77;9.30;;;;;;;13.07;100.00;102519.41;5345199;26;20447;-69
2024/04/13 01:53:51;;;;;;;20.88;9.55;;;;;;;13.04;100.00;102522.00;5348389;26;20371;-66
2024/04/13 01:56:16;;;;;;;20.58;9.52;;;;;;;13.06;100.00;102525.59;5348744;26;19992;-65
2024/04/13 01:58:41;;;;;;;21.80;10.20;;;;;;;13.07;100.00;102528.28;5348846;26;20482;-67
2024/04/13 02:01:07;;;;;;;22.15;10.32;;;;;;;13.08;100.00;102524.75;5348651;26;20383;-74
2024/04/13 02:03:33;;;;;;;21.65;10.13;;;;;;;13.11;100.00;102523.94;5348616;26;20395;-66
2024/04/13 02:06:04;;;;;;;21.15;9.45;;;;;;;13.11;100.00;102528.38;5348697;26;20005;-66
2024/04/13 02:08:33;;;;;;;22.80;10.23;;;;;;;13.12;100.00;102522.16;5348681;26;19997;-66
2024/04/13 02:10:59;;;;;;;22.98;10.70;;;;;;;13.14;100.00;102525.75;5348715;26;20001;-67
2024/04/13 02:13:24;;;;;;;22.63;10.70;;;;;;;13.14;100.00;102523.13;5348585;26;19996;-70
2024/04/13 02:15:50;;;;;;;23.48;10.60;;;;;;;13.12;100.00;102525.75;5348561;26;20011;-69
2024/04/13 02:18:17;;;;;;;21.55;10.70;;;;;;;13.14;100.00;102524.00;5348506;26;19993;-67
2024/04/13 02:20:43;;;;;;;22.15;10.30;;;;;;;13.19;100.00;102526.75;5348267;26;20349;-72
2024/04/13 02:23:09;;;;;;;23.42;10.68;;;;;;;13.19;100.00;102526.75;5348266;26;20003;-73
2024/04/13 02:25:36;;;;;;;20.55;9.90;;;;;;;13.19;100.00;102527.66;5346867;26;20007;-68
2024/04/13 02:28:02;;;;;;;22.02;10.48;;;;;;;13.17;100.00;102520.50;5348438;26;20033;-65
2024/04/13 02:30:28;;;;;;;23.52;10.55;;;;;;;13.14;100.00;102518.69;5348420;26;20008;-65
2024/04/13 02:32:53;;;;;;;21.42;10.43;;;;;;;13.17;100.00;102521.41;5348451;26;19993;-65
2024/04/13 02:35:19;;;;;;;21.75;10.05;;;;;;;13.14;100.00;102517.81;5348177;26;20341;-73
2024/04/13 02:37:44;;;;;;;21.60;10.30;;;;;;;13.11;100.00;102512.44;5348046;26;19997;-75
2024/04/13 02:40:09;;;;;;;22.08;10.50;;;;;;;13.09;100.00;102520.34;5348180;26;20071;-69
2024/04/13 02:42:36;;;;;;;22.38;10.52;;;;;;;13.04;100.00;102529.97;5348101;26;20033;-72
2024/04/13 02:45:02;;;;;;;21.85;10.70;;;;;;;12.94;100.00;102523.56;5348089;26;20008;-71
2024/04/13 02:47:27;;;;;;;22.13;10.60;;;;;;;12.87;100.00;102522.56;5347949;26;19996;-65
2024/04/13 02:49:53;;;;;;;24.50;11.10;;;;;;;12.86;100.00;102518.13;5348098;26;20067;-66
2024/04/13 02:52:20;;;;;;;21.15;10.93;;;;;;;12.83;100.00;102512.75;5347710;26;19997;-65
2024/04/13 02:54:45;;;;;;;24.25;11.80;;;;;;;12.78;100.00;102519.69;5346165;26;20012;-66
2024/04/13 02:57:12;;;;;;;23.30;11.23;;;;;;;12.71;100.00;102521.34;5346118;26;20001;-66
2024/04/13 02:59:38;;;;;;;23.10;11.27;;;;;;;12.63;100.00;102524.69;5347873;26;20001;-67
2024/04/13 03:02:04;;;;;;;22.27;11.23;;;;;;;12.63;100.00;102520.25;5346108;26;19997;-65
2024/04/13 03:04:31;;;;;;;23.02;11.38;;;;;;;12.62;100.00;102518.47;5345116;26;20314;-66
2024/04/13 03:06:59;;;;;;;22.20;11.02;;;;;;;12.60;100.00;102520.19;5347933;26;20033;-66
2024/04/13 03:09:25;;;;;;;23.65;11.73;;;;;;;12.56;100.00;102516.56;5346192;26;20001;-67
2024/04/13 03:11:50;;;;;;;23.10;11.77;;;;;;;12.52;100.00;102519.09;5347769;26;20008;-65
2024/04/13 03:14:16;;;;;;;23.13;11.45;;;;;;;12.51;100.00;102510.28;5347954;26;20001;-66
2024/04/13 03:16:41;;;;;;;23.58;11.90;;;;;;;12.50;100.00;102508.47;5347013;26;20003;-67
2024/04/13 03:19:07;;;;;;;22.92;12.13;;;;;;;12.52;100.00;102511.16;5348423;26;20000;-66
2024/04/13 03:21:35;;;;;;;22.65;11.93;;;;;;;12.49;100.00;102504.00;5348002;26;20206;-66
2024/04/13 03:24:01;;;;;;;24.75;12.38;;;;;;;12.49;100.00;102511.09;5347466;26;20001;-66
2024/04/13 03:26:26;;;;;;;23.98;12.15;;;;;;;12.44;100.00;102502.16;5347304;26;20040;-65
2024/04/13 03:28:52;;;;;;;23.73;11.88;;;;;;;12.41;100.00;102510.00;5347426;26;19993;-65
2024/04/13 03:31:17;;;;;;;24.90;12.45;;;;;;;12.39;100.00;102509.97;5347430;26;20004;-65
2024/04/13 03:33:43;;;;;;;24.85;12.63;;;;;;;12.36;100.00;102502.88;5347263;26;20001;-66
2024/04/13 03:36:08;;;;;;;23.38;12.45;;;;;;;12.33;100.00;102501.88;5347281;26;19993;-75
2024/04/13 03:38:34;;;;;;;25.67;12.65;;;;;;;12.28;100.00;102511.50;5347213;26;20007;-74
2024/04/13 03:41:05;;;;;;;23.52;12.65;;;;;;;12.21;100.00;102515.75;5389736;26;19996;-74
2024/04/13 03:43:31;;;;;;;23.67;12.40;;;;;;;12.16;100.00;102510.34;5347272;26;19993;-75
2024/04/13 03:45:59;;;;;;;23.70;12.55;;;;;;;12.14;100.00;102511.16;5389535;26;19997;-67
2024/04/13 03:48:25;;;;;;;23.45;12.90;;;;;;;12.11;100.00;102506.66;5347183;26;19997;-65
2024/04/13 03:50:51;;;;;;;24.27;12.75;;;;;;;12.09;100.00;102504.88;5347644;26;20432;-65
2024/04/13 03:53:17;;;;;;;26.80;13.57;;;;;;;12.11;100.00;102498.72;5347340;26;19993;-65
2024/04/13 03:55:42;;;;;;;23.60;13.10;;;;;;;12.13;100.00;102512.91;5389880;26;20415;-65
2024/04/13 03:58:07;;;;;;;24.15;12.88;;;;;;;12.07;100.00;102499.50;5345227;26;20035;-75
2024/04/13 04:00:33;;;;;;;24.23;12.85;;;;;;;12.01;100.00;102512.59;5346857;26;20001;-75
2024/04/13 04:02:58;;;;;;;23.35;13.05;;;;;;;11.94;100.00;102510.66;5347149;26;20000;-75
2024/04/13 04:05:23;;;;;;;25.00;13.20;;;;;;;11.85;100.00;102514.84;5347237;26;20007;-74
2024/04/13 04:07:49;;;;;;;25.05;12.65;;;;;;;11.75;100.00;102514.56;5389568;26;20064;-74
2024/04/13 04:10:14;;;;;;;24.65;13.48;;;;;;;11.67;100.00;102515.25;5389447;26;20001;-75
2024/04/13 04:12:39;;;;;;;24.98;13.73;;;;;;;11.63;100.00;102515.13;5346799;26;20005;-77
2024/04/13 04:15:05;;;;;;;24.67;13.80;;;;;;;11.57;100.00;102515.84;5346677;26;20001;-65
2024/04/13 04:17:31;;;;;;;24.35;14.43;;;;;;;11.58;100.00;102512.38;5344762;26;20009;-68
2024/04/13 04:19:56;;;;;;;26.63;14.63;;;;;;;11.60;100.00;102515.94;5346932;26;19997;-67
2024/04/13 04:22:22;;;;;;;25.33;14.50;;;;;;;11.59;100.00;102508.88;5346897;26;20012;-75
2024/04/13 04:24:47;;;;;;;26.15;14.73;;;;;;;11.57;100.00;102501.72;5346897;26;20075;-65
2024/04/13 04:27:12;;;;;;;25.60;14.48;;;;;;;11.55;100.00;102508.72;5346958;26;19993;-65
2024/04/13 04:29:38;;;;;;;27.42;14.93;;;;;;;11.52;100.00;102506.91;5346491;26;20004;-65
2024/04/13 04:32:03;;;;;;;27.02;15.13;;;;;;;11.49;100.00;102515.66;5346851;26;20321;-65
2024/04/13 04:34:30;;;;;;;25.52;14.73;;;;;;;11.51;100.00;102515.69;5346408;26;19997;-66
2024/04/13 04:36:55;;;;;;;27.20;15.68;;;;;;;11.45;100.00;102511.13;5346488;26;19993;-66
2024/04/13 04:39:21;;;;;;;26.52;14.90;;;;;;;11.45;100.00;102521.72;5388907;26;20043;-65
2024/04/13 04:41:46;;;;;;;25.38;15.20;;;;;;;11.42;100.00;102519.00;5346594;26;19993;-66
2024/04/13 04:44:11;;;;;;;25.70;15.30;;;;;;;11.41;100.00;102525.13;5346621;26;20071;-65
2024/04/13 04:46:37;;;;;;;26.55;14.85;;;;;;;11.39;100.00;102521.56;5346697;26;20009;-65
2024/04/13 04:49:04;;;;;;;25.05;14.25;;;;;;;11.28;100.00;102521.25;5346048;26;20008;-68
2024/04/13 04:51:30;;;;;;;25.38;14.18;;;;;;;11.22;100.00;102522.84;5346420;26;20484;-65
2024/04/13 04:53:55;;;;;;;23.20;13.25;;;;;;;11.17;100.00;102522.72;5346470;26;19993;-65
2024/04/13 04:56:21;;;;;;;25.55;14.85;;;;;;;11.14;100.00;102515.59;5388302;26;20446;-66
2024/04/13 04:58:47;;;;;;;25.23;14.55;;;;;;;11.11;100.00;102514.56;5344345;26;20432;-66
2024/04/13 05:01:12;;;;;;;25.27;14.70;;;;;;;11.08;100.00;102507.47;5345901;26;20294;-66
2024/04/13 05:03:37;;;;;;;24.35;13.82;;;;;;;11.06;100.00;102508.28;5344496;26;20385;-66
2024/04/13 05:06:03;;;;;;;25.80;14.88;;;;;;;11.13;100.00;102510.25;5344368;26;20067;-67
2024/04/13 05:08:29;;;;;;;26.27;15.18;;;;;;;11.16;100.00;102508.56;5345957;26;19997;-65
2024/04/13 05:10:54;;;;;;;25.52;15.15;;;;;;;11.19;100.00;102507.75;5345969;26;20358;-65
2024/04/13 05:13:20;;;;;;;27.70;16.25;;;;;;;11.23;100.00;102508.75;5345983;26;19993;-65
2024/04/13 05:15:45;;;;;;;24.92;15.30;;;;;;;11.25;100.00;102500.00;5345901;26;20008;-66
2024/04/13 05:18:11;;;;;;;26.77;16.15;;;;;;;11.29;100.00;102507.16;5345528;26;20460;-65
2024/04/13 05:20:37;;;;;;;26.17;16.30;;;;;;;11.34;100.00;102505.56;5345875;26;20326;-66
2024/04/13 05:23:05;;;;;;;26.52;16.10;;;;;;;11.42;100.00;102510.16;5343871;26;19997;-70
2024/04/13 05:25:31;;;;;;;26.48;15.90;;;;;;;11.47;100.00;102504.13;5345550;26;20000;-66
2024/04/13 05:27:56;;;;;;;26.10;15.82;;;;;;;11.53;100.00;102508.69;5347420;26;20012;-67
2024/04/13 05:30:21;;;;;;;26.38;15.57;;;;;;;11.57;100.00;102501.72;5348884;26;20410;-66
2024/04/13 05:32:47;;;;;;;26.70;15.35;;;;;;;11.63;100.00;102499.25;5349114;26;20005;-67
2024/04/13 05:35:13;;;;;;;25.38;15.20;;;;;;;11.67;100.00;102499.34;5391906;26;19996;-67
2024/04/13 05:37:39;;;;;;;25.38;14.48;;;;;;;11.68;100.00;102493.22;5348910;26;20009;-66
2024/04/13 05:40:05;;;;;;;26.40;15.10;;;;;;;11.77;100.00;102495.19;5318685;26;20007;-66
2024/04/13 05:42:31;;;;;;;25.08;15.07;;;;;;;11.82;100.00;102490.94;5348907;26;20009;-70
2024/04/13 05:44:58;;;;;;;25.15;14.77;;;;;;;11.94;100.00;102492.09;5348879;26;20008;-69
2024/04/13 05:47:23;;;;;;;25.45;14.82;;;;;;;12.06;100.00;102492.41;5347100;26;19997;-66
2024/04/13 05:49:50;;;;;;;26.23;14.43;;;;;;;12.17;100.00;102490.00;5349184;26;20336;-65
2024/04/13 05:52:16;;;;;;;26.75;14.82;;;;;;;12.27;100.00;102491.13;5348735;26;20021;-66
2024/04/13 05:54:41;;;;;;;24.83;13.93;;;;;;;12.36;100.00;102491.34;5348829;26;19997;-66
2024/04/13 05:57:07;;;;;;;24.98;13.93;;;;;;;12.42;100.00;102486.19;5348638;26;19993;-66
2024/04/13 05:59:32;;;;;;;23.83;13.05;;;;;;;12.50;100.00;102481.94;5348475;26;20000;-66
2024/04/13 06:01:57;;;;;;;24.55;13.57;;;;;;;12.57;100.00;102480.34;5348925;26;20008;-69
2024/04/13 06:04:23;;;;;;;24.80;13.55;;;;;;;12.65;100.00;102480.50;5348557;26;19996;-67
2024/04/13 06:06:50;;;;;;;24.05;13.13;;;;;;;12.70;100.00;102478.84;5348688;26;19993;-66
2024/04/13 06:09:16;;;;;;;22.95;12.98;;;;;;;12.76;100.00;102484.28;5390328;26;20012;-66
2024/04/13 06:11:41;;;;;;;24.27;12.82;;;;;;;12.85;100.00;102489.78;5348643;26;19997;-66
2024/04/13 06:14:06;;;;;;;23.70;12.52;;;;;;;12.90;100.00;102488.13;5341610;26;20008;-66
2024/04/13 06:16:33;;;;;;;24.10;12.93;;;;;;;13.00;100.00;102485.66;5348248;26;20448;-67
2024/04/13 06:18:58;;;;;;;24.48;12.68;;;;;;;13.07;100.00;102482.25;5348135;26;20066;-66
2024/04/13 06:21:24;;;;;;;25.33;12.43;;;;;;;13.17;100.00;102480.69;5348320;26;20005;-66
2024/04/13 06:23:50;;;;;;;23.48;12.43;;;;;;;13.22;100.00;102479.91;5348090;26;19997;-66
2024/04/13 06:26:15;;;;;;;23.67;12.50;;;;;;;13.32;100.00;102478.31;5317360;26;20432;-66
2024/04/13 06:28:41;;;;;;;23.50;11.90;;;;;;;13.45;100.00;102470.63;5348142;26;20071;-66
2024/04/13 06:31:06;;;;;;;23.35;12.00;;;;;;;13.54;100.00;102471.69;5341273;26;20003;-64
2024/04/13 06:33:33;;;;;;;23.02;12.30;;;;;;;13.65;100.00;102476.28;5361092;26;20012;-64
2024/04/13 06:35:58;;;;;;;23.48;11.52;;;;;;;13.72;100.00;102472.88;5348162;26;19997;-65
2024/04/13 06:38:24;;;;;;;22.77;11.82;;;;;;;13.78;100.00;102465.88;5347149;26;20001;-65
2024/04/13 06:40:53;;;;;;;22.48;11.43;;;;;;;13.86;100.00;102471.34;5347572;26;19993;-69
2024/04/13 06:43:19;;;;;;;23.00;11.43;;;;;;;13.93;100.00;102470.53;5347774;26;19993;-68
2024/04/13 06:45:46;;;;;;;22.85;11.27;;;;;;;13.95;100.00;102466.16;5348240;26;19996;-66
2024/04/13 06:48:11;;;;;;;23.15;11.15;;;;;;;14.07;100.00;102467.25;5347620;26;20000;-65
2024/04/13 06:50:37;;;;;;;22.33;10.85;;;;;;;14.17;100.00;102463.84;5346757;26;20001;-66
2024/04/13 06:53:03;;;;;;;22.65;10.77;;;;;;;14.25;100.00;102470.16;5348240;26;20008;-65
2024/04/13 06:55:28;;;;;;;22.23;10.75;;;;;;;14.36;100.00;102466.75;5346218;26;20009;-68
2024/04/13 06:57:53;;;;;;;21.98;11.18;;;;;;;14.42;100.00;102458.88;5348199;26;19997;-69
2024/04/13 07:00:19;;;;;;;22.98;10.38;;;;;;;14.48;100.00;102450.97;5347848;26;19992;-64
2024/04/13 07:02:45;;;;;;;21.95;10.98;;;;;;;14.58;100.00;102444.91;5347693;26;20008;-66
2024/04/13 07:05:11;;;;;;;21.05;10.30;;;;;;;14.71;100.00;102438.00;5347989;26;20408;-66
2024/04/13 07:07:36;;;;;;;20.85;9.80;;;;;;;14.76;100.00;102441.59;5347763;26;20003;-67
2024/04/13 07:10:02;;;;;;;22.40;10.60;;;;;;;14.83;100.00;102445.25;5347437;26;19996;-66
2024/04/13 07:12:28;;;;;;;22.50;10.70;;;;;;;14.94;100.00;102448.03;5347777;26;20001;-66
2024/04/13 07:14:53;;;;;;;22.08;10.40;;;;;;;15.03;100.00;102447.25;5347685;26;20024;-69
2024/04/13 07:17:19;;;;;;;21.70;9.82;;;;;;;15.16;100.00;102439.41;5389591;26;20028;-68
2024/04/13 07:19:44;;;;;;;22.45;9.90;;;;;;;15.30;100.00;102441.31;5347460;26;20071;-66
2024/04/13 07:22:09;;;;;;;22.10;9.80;;;;;;;15.41;100.00;102438.78;5347840;26;20001;-67
2024/04/13 07:24:35;;;;;;;21.65;9.70;;;;;;;15.45;100.00;102441.47;5347610;26;19993;-68
2024/04/13 07:27:00;;;;;;;21.20;9.70;;;;;;;15.55;100.00;102425.56;5347506;26;20001;-68
2024/04/13 07:29:27;;;;;;;21.10;9.60;;;;;;;15.62;100.00;102427.41;5347399;26;20431;-66
2024/04/13 07:31:52;;;;;;;21.15;9.50;;;;;;;15.72;100.00;102417.72;5347318;26;19997;-66
2024/04/13 07:34:18;;;;;;;20.08;8.80;;;;;;;15.82;100.00;102415.16;5341253;26;20436;-68
2024/04/13 07:36:44;;;;;;;21.75;9.18;;;;;;;15.91;100.00;102417.00;5345459;26;20017;-76
2024/04/13 07:39:10;;;;;;;20.60;8.88;;;;;;;15.89;100.00;102410.78;5347616;26;20406;-67
2024/04/13 07:41:35;;;;;;;21.10;8.48;;;;;;;15.90;100.00;102401.00;5389345;26;19997;-71
2024/04/13 07:44:00;;;;;;;20.38;8.45;;;;;;;16.03;100.00;102414.44;5345329;26;19996;-65
2024/04/13 07:46:27;;;;;;;20.15;8.60;;;;;;;16.17;100.00;102410.94;5347268;26;20344;-69
2024/04/13 07:48:52;;;;;;;20.52;8.68;;;;;;;16.24;100.00;102401.19;5347297;26;20007;-66
2024/04/13 07:51:18;;;;;;;20.15;8.23;;;;;;;16.35;100.00;102410.16;5346840;26;19997;-67
2024/04/13 07:53:44;;;;;;;20.55;8.45;;;;;;;16.48;100.00;102405.75;5345395;26;20405;-69
2024/04/13 07:56:09;;;;;;;19.95;7.85;;;;;;;16.56;100.00;102398.69;5347040;26;20001;-75
2024/04/13 07:58:34;;;;;;;20.02;8.18;;;;;;;16.66;100.00;102387.16;5389341;26;19997;-68
2024/04/13 08:01:00;;;;;;;20.48;7.88;;;;;;;16.77;100.00;102391.63;5347378;26;20008;-70
2024/04/13 08:03:25;;;;;;;19.20;7.82;;;;;;;16.98;100.00;102386.41;5347153;26;19997;-74
2024/04/13 08:05:50;;;;;;;20.65;7.72;;;;;;;17.07;100.00;102390.84;5347240;26;20011;-74
2024/04/13 08:08:16;;;;;;;21.20;7.53;;;;;;;17.09;100.00;102389.06;5347126;26;20420;-69
2024/04/13 08:10:42;;;;;;;20.17;7.50;;;;;;;17.19;100.00;102395.31;5346920;26;20012;-74
2024/04/13 08:13:08;;;;;;;19.92;7.47;;;;;;;17.39;100.00;102393.56;5339906;26;20003;-74
2024/04/13 08:15:38;;;;;;;18.92;7.13;;;;;;;17.55;100.00;102383.75;5347126;26;19996;-76
2024/04/13 08:18:04;;;;;;;20.25;7.13;;;;;;;17.63;100.00;102382.88;5346681;26;20024;-75
2024/04/13 08:20:30;;;;;;;18.13;6.90;;;;;;;17.90;100.00;102377.50;5346796;26;20048;-75
2024/04/13 08:22:55;;;;;;;19.10;7.03;;;;;;;18.07;100.00;102385.50;5345603;26;20000;-75
2024/04/13 08:25:21;;;;;;;19.45;6.75;;;;;;;18.11;100.00;102381.94;5346955;26;20070;-75
2024/04/13 08:27:46;;;;;;;19.08;6.75;;;;;;;18.26;100.00;102385.44;5346782;26;20070;-69
2024/04/13 08:30:11;;;;;;;19.73;6.57;;;;;;;18.33;100.00;102373.81;5346832;26;20012;-65
2024/04/13 08:32:37;;;;;;;18.98;6.65;;;;;;;18.62;100.00;102367.44;5346831;26;20001;-67
2024/04/13 08:35:05;;;;;;;17.90;6.38;;;;;;;18.68;100.00;102370.06;5346766;26;20008;-66
2024/04/13 08:37:31;;;;;;;19.00;6.53;;;;;;;18.58;100.00;102373.69;5346287;26;20451;-66
2024/04/13 08:39:57;;;;;;;17.92;6.03;;;;;;;18.60;100.00;102372.81;5346282;26;19997;-68
2024/04/13 08:42:43;;;;;;;18.40;6.10;;;;;;;18.87;100.00;102360.19;5346503;26;20438;-69
2024/04/13 08:45:10;;;;;;;18.75;6.00;;;;;;;18.85;100.00;102361.97;5339807;26;20021;-69
2024/04/13 08:47:38;;;;;;;18.02;5.72;;;;;;;18.81;100.00;102354.84;5344451;26;20029;-66
2024/04/13 08:50:04;;;;;;;20.52;6.35;;;;;;;18.80;100.00;102353.06;5346113;26;20000;-67
2024/04/13 08:52:30;;;;;;;19.02;6.40;;;;;;;18.86;100.00;102347.72;5345993;26;20460;-68
2024/04/13 08:54:56;;;;;;;18.75;5.93;;;;;;;18.99;100.00;102356.56;5346236;26;20021;-66
2024/04/13 08:57:26;;;;;;;18.55;6.00;;;;;;;19.37;100.00;102359.81;5346189;26;20011;-64
2024/04/13 08:59:52;;;;;;;18.10;6.07;;;;;;;19.64;100.00;102353.31;5346327;26;20001;-68
2024/04/13 09:02:25;;;;;;;18.05;5.75;;;;;;;19.80;100.00;102333.50;5347009;26;19997;-66
2024/04/13 09:04:51;;;;;;;16.73;5.80;;;;;;;19.84;100.00;102346.00;5349145;26;20003;-67
2024/04/13 09:07:20;;;;;;;17.50;5.95;;;;;;;19.91;100.00;102344.16;5391567;26;19997;-66
2024/04/13 09:09:48;;;;;;;17.40;5.57;;;;;;;19.78;100.00;102334.41;5349571;26;19997;-68
2024/04/13 09:12:13;;;;;;;18.13;5.70;;;;;;;19.94;100.00;102335.19;5349107;26;20001;-68
2024/04/13 09:14:39;;;;;;;17.08;5.50;;;;;;;19.92;100.00;102328.91;5349337;26;20011;-69
2024/04/13 09:17:04;;;;;;;20.08;5.90;;;;;;;19.98;100.00;102319.00;5349052;26;19993;-68
2024/04/13 09:19:30;;;;;;;17.05;5.55;;;;;;;20.08;100.00;102318.91;5349930;26;20000;-66
2024/04/13 09:21:55;;;;;;;16.42;5.60;;;;;;;20.19;100.00;102316.97;5349216;26;20004;-66
2024/04/13 09:24:21;;;;;;;18.92;5.65;;;;;;;20.29;100.00;102310.56;5349104;26;20008;-69
2024/04/13 09:26:47;;;;;;;18.23;5.57;;;;;;;20.30;100.00;102311.44;5348721;26;20008;-68
2024/04/13 09:29:13;;;;;;;16.23;5.35;;;;;;;20.33;100.00;102319.50;5349278;26;19997;-68
2024/04/13 09:31:42;;;;;;;17.25;5.68;;;;;;;20.28;100.00;102315.97;5342328;26;19993;-68
2024/04/13 09:34:16;;;;;;;16.23;5.30;;;;;;;20.38;100.00;102299.69;5348859;26;20008;-69
2024/04/13 09:36:42;;;;;;;17.90;5.50;;;;;;;20.33;100.00;102306.06;5342439;26;19997;-68
2024/04/13 09:39:07;;;;;;;15.43;5.40;;;;;;;20.25;100.00;102300.78;5348975;26;20333;-69
2024/04/13 09:41:32;;;;;;;18.15;5.40;;;;;;;20.44;100.00;102290.69;5349203;26;20005;-69
2024/04/13 09:43:58;;;;;;;16.80;5.60;;;;;;;20.80;100.00;102299.13;5348561;26;20003;-65
2024/04/13 09:46:25;;;;;;;15.63;4.90;;;;;;;21.49;100.00;102291.69;5348873;26;20071;-64
2024/04/13 09:48:54;;;;;;;17.15;5.00;;;;;;;21.97;100.00;102284.53;5348862;26;19997;-65
2024/04/13 09:51:19;;;;;;;16.60;4.70;;;;;;;22.14;100.00;102294.97;5348488;26;20001;-72
2024/04/13 09:53:47;;;;;;;14.70;4.80;;;;;;;22.15;100.00;102281.47;5348643;26;20451;-73
2024/04/13 09:56:13;;;;;;;15.43;4.78;;;;;;;22.44;100.00;102278.16;5348305;26;20009;-75
2024/04/13 09:58:38;;;;;;;14.68;4.50;;;;;;;22.43;100.00;102270.97;5348711;26;20052;-73
2024/04/13 10:01:05;;;;;;;16.15;4.55;;;;;;;22.98;100.00;102262.50;5348410;26;20007;-66
2024/04/13 10:03:31;;;;;;;13.82;3.90;;;;;;;23.48;100.00;102264.81;5348791;26;20008;-65
2024/04/13 10:05:57;;;;;;;14.02;4.00;;;;;;;23.90;100.00;102267.25;5348774;26;20000;-76
2024/04/13 10:08:26;;;;;;;14.63;4.00;;;;;;;23.89;100.00;102267.28;5348636;26;20004;-76
2024/04/13 10:10:53;;;;;;;13.95;4.10;;;;;;;23.83;100.00;102268.31;5348912;26;20344;-75
2024/04/13 10:13:28;;;;;;;12.90;3.90;;;;;;;23.62;100.00;102262.63;5348494;26;19997;-75
2024/04/13 10:15:55;;;;;;;14.40;4.10;;;;;;;24.31;100.00;102259.69;5348602;26;20003;-75
2024/04/13 10:18:21;;;;;;;13.13;3.92;;;;;;;24.82;100.00;102266.22;5348255;26;20070;-75
2024/04/13 10:20:47;;;;;;;12.60;3.92;;;;;;;25.28;100.00;102261.06;5349178;26;20290;-74
2024/04/13 10:23:14;;;;;;;11.38;3.70;;;;;;;25.74;100.00;102251.28;5348915;26;20346;-69
2024/04/13 10:25:40;;;;;;;11.52;3.50;;;;;;;25.55;100.00;102237.53;5341439;26;20456;-67
2024/04/13 10:28:12;;;;;;;13.18;3.50;;;;;;;25.42;100.00;102241.63;5348113;26;20001;-72
2024/04/13 10:30:46;;;;;;;12.10;3.33;;;;;;;25.27;100.00;102237.63;5348722;26;19993;-72
2024/04/13 10:33:17;;;;;;;12.40;3.38;;;;;;;25.26;100.00;102238.56;5341995;26;20456;-69
2024/04/13 10:36:03;;;;;;;11.13;3.47;;;;;;;25.14;100.00;102241.72;5342186;26;19992;-75
2024/04/13 10:38:31;;;;;;;10.10;3.30;;;;;;;25.18;100.00;102230.72;5345759;26;19997;-71
2024/04/13 10:40:57;;;;;;;11.18;3.40;;;;;;;25.51;100.00;102224.19;5347868;26;20001;-74
2024/04/13 10:43:24;;;;;;;11.73;3.38;;;;;;;25.19;100.00;102227.09;5348477;26;20017;-67
2024/04/13 10:46:00;;;;;;;12.07;3.10;;;;;;;24.77;100.00;102241.16;5348021;26;20011;-73
2024/04/13 10:48:28;;;;;;;11.77;3.30;;;;;;;24.69;100.00;102235.13;5347992;26;20029;-69
2024/04/13 10:50:55;;;;;;;11.85;3.30;;;;;;;24.93;100.00;102228.00;5348021;26;20008;-65
2024/04/13 10:53:23;;;;;;;12.35;3.30;;;;;;;25.15;100.00;102211.91;5347820;26;19999;-66
2024/04/13 10:55:50;;;;;;;10.75;3.30;;;;;;;25.40;100.00;102209.22;5347766;26;20005;-69
2024/04/13 10:58:15;;;;;;;10.70;3.00;;;;;;;25.69;100.00;102204.56;5346540;26;20000;-65
2024/04/13 11:00:46;;;;;;;11.38;3.20;;;;;;;25.83;100.00;102198.59;5348054;26;20049;-65